Cleveland, Ohio
Traffic Map
Current Weather Conditions
Cleveland, Ohio
Overcast
Overcast
57°
Feels Like: 57°
Wind Chill: 57° Ceiling: 5000
Heat Index: 57° Visibility: 10mi
Dew Point: 45° Wind: 0mph
Humidity: 64% Direction: ° ()
Pressure: 29.99in Gusts: 0mph
Raw Report DataKBKL 250053Z 00000KT 10SM OVC050 14/07 A2999 RMK AO2 SLP158 T01390072
Traffic Incident Summary
Active as of:
Severity:
Category:
InformationThere was an issue retrieving the traffic information for this location. Please try a different location or try again shortly.
Advertisements
Track Severe Weather on mobile